createdAt,value
2022-12-08T00:02:10.760Z,100315.35
2022-12-08T00:04:59.905Z,100317.70
2022-12-08T00:07:46.756Z,100309.13
2022-12-08T00:10:47.404Z,100323.96
2022-12-08T00:13:03.846Z,100328.96
2022-12-08T00:15:32.014Z,100333.51
2022-12-08T00:18:00.274Z,100339.61
2022-12-08T00:20:28.774Z,100337.13
2022-12-08T00:22:56.992Z,100339.43
2022-12-08T00:25:25.277Z,100339.07
2022-12-08T00:27:53.473Z,100346.02
2022-12-08T00:30:21.873Z,100347.05
2022-12-08T00:32:50.257Z,100347.70
2022-12-08T00:35:18.492Z,100346.45
2022-12-08T00:37:47.323Z,100348.38
2022-12-08T00:40:15.765Z,100353.92
2022-12-08T00:42:44.049Z,100354.64
2022-12-08T00:45:12.471Z,100361.42
2022-12-08T00:47:40.742Z,100362.45
2022-12-08T00:50:09.882Z,100370.66
2022-12-08T00:52:38.137Z,100369.00
2022-12-08T00:55:06.553Z,100374.13
2022-12-08T00:57:34.849Z,100379.41
2022-12-08T01:00:04.618Z,100367.59
2022-12-08T01:02:34.514Z,100390.23
2022-12-08T01:05:02.923Z,100391.64
2022-12-08T01:07:31.073Z,100395.23
2022-12-08T01:09:59.668Z,100399.60
2022-12-08T01:12:30.491Z,100397.73
2022-12-08T01:15:02.227Z,100402.50
2022-12-08T01:17:30.986Z,100400.27
2022-12-08T01:19:59.900Z,100401.44
2022-12-08T01:22:28.213Z,100395.95
2022-12-08T01:24:56.635Z,100400.98
2022-12-08T01:27:24.807Z,100400.85
2022-12-08T01:29:53.055Z,100399.71
2022-12-08T01:32:21.255Z,100399.80
2022-12-08T01:34:49.583Z,100403.15
2022-12-08T01:37:17.864Z,100398.64
2022-12-08T01:39:46.447Z,100403.27
2022-12-08T01:42:25.626Z,100393.55
2022-12-08T01:45:00.871Z,100413.36
2022-12-08T01:47:42.902Z,100410.58
2022-12-08T01:50:15.598Z,100395.96
2022-12-08T01:52:52.901Z,100408.23
2022-12-08T01:55:26.343Z,100402.13
2022-12-08T01:57:59.933Z,100404.58
2022-12-08T02:00:28.390Z,100408.86
2022-12-08T02:03:06.905Z,100412.09
2022-12-08T02:05:39.230Z,100410.42
2022-12-08T02:08:11.477Z,100415.17
2022-12-08T02:10:42.933Z,100417.86
2022-12-08T02:13:16.906Z,100406.16
2022-12-08T02:16:03.459Z,100423.52
2022-12-08T02:18:34.731Z,100425.35
2022-12-08T02:21:26.391Z,100430.41
2022-12-08T02:23:54.646Z,100430.37
2022-12-08T02:26:55.634Z,100431.47
2022-12-08T02:29:45.306Z,100433.73
2022-12-08T02:32:25.843Z,100436.02
2022-12-08T02:35:08.317Z,100434.41
2022-12-08T02:37:48.561Z,100436.58
2022-12-08T02:40:21.067Z,100438.69
2022-12-08T02:42:58.862Z,100443.56
2022-12-08T02:45:26.958Z,100442.73
2022-12-08T02:47:55.451Z,100440.54
2022-12-08T02:50:23.832Z,100425.65
2022-12-08T02:52:52.051Z,100446.98
2022-12-08T02:55:39.803Z,100447.98
2022-12-08T02:58:18.268Z,100450.77
2022-12-08T03:00:52.682Z,100457.77
2022-12-08T03:03:53.173Z,100462.33
2022-12-08T03:06:43.295Z,100471.42
2022-12-08T03:09:22.764Z,100472.20
2022-12-08T03:11:59.219Z,100471.41
2022-12-08T03:14:29.720Z,100467.61
2022-12-08T03:16:59.957Z,100473.19
2022-12-08T03:19:34.582Z,100472.04
2022-12-08T03:22:05.198Z,100476.86
2022-12-08T03:24:40.892Z,100468.30
2022-12-08T03:27:19.258Z,100479.52
2022-12-08T03:29:49.538Z,100484.79
2022-12-08T03:32:29.471Z,100484.30
2022-12-08T03:35:01.338Z,100490.73
2022-12-08T03:37:30.063Z,100492.84
2022-12-08T03:39:58.403Z,100492.13
2022-12-08T03:42:26.724Z,100497.38
2022-12-08T03:44:55.073Z,100494.26
2022-12-08T03:47:23.181Z,100492.89
2022-12-08T03:49:51.612Z,100493.33
2022-12-08T03:52:19.728Z,100498.05
2022-12-08T03:54:48.208Z,100504.68
2022-12-08T03:57:16.540Z,100502.79
2022-12-08T03:59:44.823Z,100510.44
2022-12-08T04:02:13.108Z,100503.12
2022-12-08T04:04:41.572Z,100506.32
2022-12-08T04:07:09.844Z,100508.91
2022-12-08T04:09:39.151Z,100515.27
2022-12-08T04:12:08.541Z,100516.36
2022-12-08T04:14:36.939Z,100521.46
2022-12-08T04:17:05.083Z,100521.95
2022-12-08T04:19:33.460Z,100522.94
2022-12-08T04:22:01.645Z,100519.92
2022-12-08T04:24:29.852Z,100521.58
2022-12-08T04:26:58.084Z,100524.55
2022-12-08T04:29:26.381Z,100523.80
2022-12-08T04:31:54.591Z,100525.60
2022-12-08T04:34:23.415Z,100530.93
2022-12-08T04:36:51.653Z,100534.42
2022-12-08T04:39:20.132Z,100534.67
2022-12-08T04:41:48.380Z,100540.77
2022-12-08T04:44:17.012Z,100533.65
2022-12-08T04:46:45.267Z,100542.02
2022-12-08T04:49:13.738Z,100547.02
2022-12-08T04:51:41.938Z,100531.00
2022-12-08T04:54:10.082Z,100550.73
2022-12-08T04:56:38.267Z,100552.02
2022-12-08T04:59:06.710Z,100556.73
2022-12-08T05:01:35.036Z,100554.62
2022-12-08T05:04:03.448Z,100551.87
2022-12-08T05:06:31.587Z,100554.84
2022-12-08T05:08:59.846Z,100555.92
2022-12-08T05:11:28.038Z,100554.75
2022-12-08T05:13:56.361Z,100553.98
2022-12-08T05:16:24.607Z,100554.77
2022-12-08T05:18:53.053Z,100559.66
2022-12-08T05:21:23.389Z,100563.35
2022-12-08T05:23:51.662Z,100568.54
2022-12-08T05:26:19.775Z,100568.46
2022-12-08T05:28:48.140Z,100563.00
2022-12-08T05:31:17.455Z,100551.98
2022-12-08T05:33:46.533Z,100567.09
2022-12-08T05:36:16.016Z,100572.23
2022-12-08T05:38:46.418Z,100574.16
2022-12-08T05:41:18.605Z,100575.82
2022-12-08T05:43:47.676Z,100573.41
2022-12-08T05:46:16.972Z,100576.27
2022-12-08T05:48:45.624Z,100574.11
2022-12-08T05:51:24.610Z,100579.27
2022-12-08T05:53:53.891Z,100580.98
2022-12-08T05:56:22.718Z,100571.35
2022-12-08T05:58:51.295Z,100596.32
2022-12-08T06:01:22.454Z,100594.67
2022-12-08T06:03:52.039Z,100596.77
2022-12-08T06:06:20.765Z,100598.42
2022-12-08T06:08:49.576Z,100600.33
2022-12-08T06:11:24.037Z,100600.38
2022-12-08T06:13:52.768Z,100610.09
2022-12-08T06:16:20.983Z,100613.95
2022-12-08T06:18:49.651Z,100619.17
2022-12-08T06:21:18.141Z,100621.50
2022-12-08T06:23:51.388Z,100622.88
2022-12-08T06:26:20.005Z,100628.59
2022-12-08T06:28:49.568Z,100628.05
2022-12-08T06:31:23.675Z,100635.21
2022-12-08T06:33:53.463Z,100633.27
2022-12-08T06:36:24.626Z,100635.38
2022-12-08T06:38:53.094Z,100640.60
2022-12-08T06:41:21.954Z,100644.08
2022-12-08T06:43:50.357Z,100644.89
2022-12-08T06:46:19.926Z,100649.77
2022-12-08T06:48:50.603Z,100649.98
2022-12-08T06:51:22.873Z,100653.05
2022-12-08T06:53:51.322Z,100651.71
2022-12-08T06:56:22.493Z,100656.64
2022-12-08T06:58:53.005Z,100657.39
2022-12-08T07:01:22.003Z,100657.02
2022-12-08T07:03:50.523Z,100658.45
2022-12-08T07:06:22.584Z,100658.48
2022-12-08T07:08:51.683Z,100658.36
2022-12-08T07:11:22.197Z,100658.91
2022-12-08T07:13:51.182Z,100655.52
2022-12-08T07:16:20.261Z,100662.05
2022-12-08T07:18:48.729Z,100658.86
2022-12-08T07:21:17.932Z,100662.80
2022-12-08T07:23:50.171Z,100665.15
2022-12-08T07:26:22.768Z,100668.40
2022-12-08T07:28:51.052Z,100667.13
2022-12-08T07:31:22.173Z,100662.00
2022-12-08T07:33:52.073Z,100673.23
2022-12-08T07:36:21.372Z,100676.73
2022-12-08T07:38:53.267Z,100684.45
2022-12-08T07:41:26.071Z,100684.92
2022-12-08T07:43:55.888Z,100687.98
2022-12-08T07:46:25.973Z,100690.86
2022-12-08T07:48:55.481Z,100694.45
2022-12-08T07:51:25.150Z,100694.71
2022-12-08T07:53:55.148Z,100704.83
2022-12-08T07:56:24.000Z,100704.85
2022-12-08T07:58:52.404Z,100710.80
2022-12-08T08:01:29.571Z,100710.84
2022-12-08T08:04:02.009Z,100712.60
2022-12-08T08:06:35.206Z,100712.79
2022-12-08T08:09:04.112Z,100717.29
2022-12-08T08:11:32.441Z,100722.52
2022-12-08T08:14:00.930Z,100719.68
2022-12-08T08:16:33.474Z,100724.48
2022-12-08T08:19:04.801Z,100727.25
2022-12-08T08:21:48.413Z,100731.59
2022-12-08T08:24:17.839Z,100733.74
2022-12-08T08:26:46.077Z,100741.58
2022-12-08T08:29:14.188Z,100746.05
2022-12-08T08:31:42.836Z,100754.27
2022-12-08T08:34:11.286Z,100749.14
2022-12-08T08:36:40.420Z,100754.35
2022-12-08T08:39:09.370Z,100751.28
2022-12-08T08:41:37.784Z,100755.45
2022-12-08T08:44:06.203Z,100755.98
2022-12-08T08:46:34.512Z,100764.44
2022-12-08T08:49:03.075Z,100768.41
2022-12-08T08:51:31.612Z,100763.60
2022-12-08T08:53:59.877Z,100768.30
2022-12-08T08:56:28.083Z,100767.54
2022-12-08T08:58:56.371Z,100765.95
2022-12-08T09:01:27.555Z,100754.33
2022-12-08T09:03:56.525Z,100768.59
2022-12-08T09:06:25.022Z,100774.84
2022-12-08T09:08:53.288Z,100774.23
2022-12-08T09:11:23.609Z,100775.39
2022-12-08T09:13:53.807Z,100772.98
2022-12-08T09:16:23.149Z,100774.23
2022-12-08T09:18:52.058Z,100772.85
2022-12-08T09:21:24.355Z,100771.48
2022-12-08T09:23:57.593Z,100766.91
2022-12-08T09:26:28.025Z,100767.55
2022-12-08T09:28:57.192Z,100762.40
2022-12-08T09:31:25.790Z,100767.52
2022-12-08T09:33:54.095Z,100769.71
2022-12-08T09:36:22.371Z,100769.80
2022-12-08T09:38:51.816Z,100774.45
2022-12-08T09:41:36.548Z,100773.22
2022-12-08T09:44:07.274Z,100754.20
2022-12-08T09:46:37.857Z,100775.15
2022-12-08T09:49:14.368Z,100774.64
2022-12-08T09:51:45.114Z,100780.59
2022-12-08T09:54:21.214Z,100778.61
2022-12-08T09:56:55.290Z,100786.02
2022-12-08T09:59:26.206Z,100783.77
2022-12-08T10:01:55.456Z,100785.14
2022-12-08T10:04:23.968Z,100783.69
2022-12-08T10:07:30.948Z,100785.86
2022-12-08T10:10:21.186Z,100785.15
2022-12-08T10:13:05.830Z,100782.09
2022-12-08T10:15:41.963Z,100782.55
2022-12-08T10:18:19.570Z,100777.80
2022-12-08T10:20:49.893Z,100775.41
2022-12-08T10:23:36.666Z,100771.86
2022-12-08T10:26:08.233Z,100766.09
2022-12-08T10:28:41.402Z,100766.31
2022-12-08T10:31:18.143Z,100766.77
2022-12-08T10:33:48.302Z,100763.98
2022-12-08T10:36:16.979Z,100764.11
2022-12-08T10:38:45.202Z,100757.13
2022-12-08T10:41:18.291Z,100735.59
2022-12-08T10:43:49.853Z,100743.08
2022-12-08T10:46:25.985Z,100746.55
2022-12-08T10:48:57.174Z,100740.89
2022-12-08T10:51:30.129Z,100740.14
2022-12-08T10:53:59.451Z,100742.80
2022-12-08T10:56:30.950Z,100741.98
2022-12-08T10:59:18.553Z,100741.17
2022-12-08T11:01:49.954Z,100735.19
2022-12-08T11:04:29.975Z,100736.92
2022-12-08T11:06:58.311Z,100733.63
2022-12-08T11:09:37.765Z,100728.78
2022-12-08T11:12:16.736Z,100726.70
2022-12-08T11:14:44.975Z,100716.84
2022-12-08T11:17:23.204Z,100723.04
2022-12-08T11:20:00.638Z,100719.39
2022-12-08T11:22:44.031Z,100711.48
2022-12-08T11:25:19.312Z,100715.21
2022-12-08T11:27:53.092Z,100711.42
2022-12-08T11:30:32.239Z,100712.60
2022-12-08T11:33:06.750Z,100708.14
2022-12-08T11:35:38.915Z,100706.57
2022-12-08T11:38:21.479Z,100711.86
2022-12-08T11:40:55.451Z,100714.92
2022-12-08T11:43:35.570Z,100705.66
2022-12-08T11:46:20.066Z,100701.66
2022-12-08T11:49:07.211Z,100699.60
2022-12-08T11:51:45.497Z,100697.95
2022-12-08T11:54:25.508Z,100691.59
2022-12-08T11:56:57.612Z,100700.50
2022-12-08T11:59:47.343Z,100697.56
2022-12-08T12:02:20.571Z,100689.22
2022-12-08T12:04:52.810Z,100691.70
2022-12-08T12:07:32.938Z,100693.08
2022-12-08T12:10:10.324Z,100691.38
2022-12-08T12:12:56.504Z,100685.14
2022-12-08T12:16:10.980Z,100691.27
2022-12-08T12:18:39.183Z,100691.40
2022-12-08T12:21:09.932Z,100686.14
2022-12-08T12:24:18.609Z,100677.73
2022-12-08T12:27:13.400Z,100674.34
2022-12-08T12:29:56.936Z,100670.85
2022-12-08T12:32:27.398Z,100673.58
2022-12-08T12:34:59.139Z,100665.95
2022-12-08T12:37:40.031Z,100665.23
2022-12-08T12:40:34.169Z,100660.46
2022-12-08T12:43:02.640Z,100660.46
2022-12-08T12:45:34.915Z,100659.41
2022-12-08T12:48:02.959Z,100648.64
2022-12-08T12:50:34.431Z,100641.85
2022-12-08T12:53:25.996Z,100654.33
2022-12-08T12:56:03.988Z,100648.48
2022-12-08T12:58:32.348Z,100651.13
2022-12-08T13:01:12.789Z,100652.34
2022-12-08T13:03:47.492Z,100655.95
2022-12-08T13:06:23.125Z,100645.06
2022-12-08T13:08:54.860Z,100645.81
2022-12-08T13:11:24.254Z,100643.41
2022-12-08T13:14:04.939Z,100635.63
2022-12-08T13:16:39.473Z,100633.39
2022-12-08T13:19:15.981Z,100631.31
2022-12-08T13:21:44.140Z,100629.41
2022-12-08T13:24:21.171Z,100626.88
2022-12-08T13:27:09.511Z,100626.55
2022-12-08T13:29:40.768Z,100630.05
2022-12-08T13:32:09.766Z,100631.02
2022-12-08T13:34:45.645Z,100633.71
2022-12-08T13:37:20.056Z,100634.22
2022-12-08T13:40:10.790Z,100636.45
2022-12-08T13:42:51.073Z,100638.65
2022-12-08T13:45:59.033Z,100641.62
2022-12-08T13:49:26.268Z,100633.73
2022-12-08T13:57:36.219Z,100627.86
2022-12-08T14:00:08.194Z,100622.73
2022-12-08T14:02:48.179Z,100622.80
2022-12-08T14:05:26.596Z,100623.83
2022-12-08T14:08:03.356Z,100607.70
2022-12-08T14:10:32.255Z,100617.20
2022-12-08T14:13:12.552Z,100614.06
2022-12-08T14:15:41.144Z,100608.52
2022-12-08T14:18:30.567Z,100593.71
2022-12-08T14:21:28.930Z,100610.93
2022-12-08T14:24:03.338Z,100607.21
2022-12-08T14:26:36.177Z,100608.39
2022-12-08T14:29:08.209Z,100605.02
2022-12-08T14:31:36.382Z,100601.52
2022-12-08T14:34:04.981Z,100601.02
2022-12-08T14:36:33.956Z,100605.33
2022-12-08T14:39:02.247Z,100604.68
2022-12-08T14:41:33.204Z,100606.59
2022-12-08T14:44:02.168Z,100607.02
2022-12-08T14:46:30.392Z,100608.81
2022-12-08T14:48:59.849Z,100607.89
2022-12-08T14:51:32.139Z,100608.02
2022-12-08T14:54:08.531Z,100610.38
2022-12-08T14:56:46.807Z,100612.23
2022-12-08T14:59:17.839Z,100612.94
2022-12-08T15:01:47.943Z,100611.66
2022-12-08T15:04:22.567Z,100615.51
2022-12-08T15:07:05.846Z,100612.75
2022-12-08T15:09:43.561Z,100613.79
2022-12-08T15:12:14.544Z,100608.96
2022-12-08T15:14:54.663Z,100588.13
2022-12-08T15:17:51.728Z,100603.73
2022-12-08T15:20:33.362Z,100599.80
2022-12-08T15:23:04.547Z,100603.14
2022-12-08T15:25:32.986Z,100607.13
2022-12-08T15:28:03.148Z,100612.09
2022-12-08T15:30:31.368Z,100599.86
2022-12-08T15:32:59.877Z,100617.27
2022-12-08T15:35:28.403Z,100615.40
2022-12-08T15:37:56.900Z,100610.84
2022-12-08T15:40:27.392Z,100593.77
2022-12-08T15:42:55.654Z,100608.72
2022-12-08T15:45:30.967Z,100611.59
2022-12-08T15:47:59.073Z,100609.67
2022-12-08T15:50:27.439Z,100608.75
2022-12-08T15:52:55.632Z,100605.95
2022-12-08T15:55:24.025Z,100604.11
2022-12-08T16:00:58.224Z,100603.90
2022-12-08T16:09:33.308Z,100600.01
2022-12-08T16:12:20.592Z,100603.41
2022-12-08T16:17:37.947Z,100599.58
2022-12-08T16:20:15.438Z,100597.96
2022-12-08T16:22:56.751Z,100593.98
2022-12-08T16:25:52.830Z,100593.66
2022-12-08T16:28:52.727Z,100573.16
2022-12-08T16:31:15.028Z,100590.44
2022-12-08T16:33:45.530Z,100591.62
2022-12-08T16:36:13.659Z,100588.05
2022-12-08T16:38:41.848Z,100585.11
2022-12-08T16:41:36.086Z,100585.70
2022-12-08T16:44:06.415Z,100584.45
2022-12-08T16:46:36.070Z,100577.27
2022-12-08T16:49:04.988Z,100574.73
2022-12-08T16:51:33.109Z,100569.08
2022-12-08T16:54:01.267Z,100564.54
2022-12-08T16:56:33.245Z,100566.80
2022-12-08T16:59:02.613Z,100566.34
2022-12-08T17:01:30.983Z,100565.56
2022-12-08T17:06:47.506Z,100566.88
2022-12-08T17:09:15.662Z,100564.73
2022-12-08T17:11:44.178Z,100563.06
2022-12-08T17:14:13.299Z,100561.04
2022-12-08T17:16:42.708Z,100560.75
2022-12-08T17:19:13.941Z,100557.52
2022-12-08T17:21:43.036Z,100559.16
2022-12-08T17:24:12.317Z,100562.33
2022-12-08T17:26:41.840Z,100561.52
2022-12-08T17:29:09.990Z,100564.33
2022-12-08T17:31:38.348Z,100559.70
2022-12-08T17:34:11.161Z,100554.08
2022-12-08T17:36:39.349Z,100552.38
2022-12-08T17:39:12.131Z,100549.73
2022-12-08T17:41:44.663Z,100549.44
2022-12-08T17:44:17.981Z,100547.25
2022-12-08T17:46:52.657Z,100551.23
2022-12-08T17:49:36.438Z,100551.63
2022-12-08T17:52:08.041Z,100553.84
2022-12-08T17:54:36.825Z,100553.45
2022-12-08T17:57:05.702Z,100553.52
2022-12-08T17:59:34.190Z,100556.02
2022-12-08T18:02:02.874Z,100551.40
2022-12-08T18:04:31.231Z,100537.65
2022-12-08T18:07:01.444Z,100549.81
2022-12-08T18:09:31.357Z,100549.80
2022-12-08T18:12:00.082Z,100548.72
2022-12-08T18:14:28.691Z,100547.98
2022-12-08T18:16:56.987Z,100547.91
2022-12-08T18:19:26.373Z,100550.24
2022-12-08T18:21:55.073Z,100551.88
2022-12-08T18:24:23.742Z,100550.73
2022-12-08T18:26:52.689Z,100545.77
2022-12-08T18:29:22.584Z,100550.63
2022-12-08T18:31:51.716Z,100545.73
2022-12-08T18:34:20.331Z,100545.12
2022-12-08T18:36:49.135Z,100543.02
2022-12-08T18:39:24.582Z,100546.80
2022-12-08T18:41:53.884Z,100545.79
2022-12-08T18:44:22.230Z,100548.44
2022-12-08T18:46:51.527Z,100550.33
2022-12-08T18:49:20.039Z,100545.79
2022-12-08T18:51:48.375Z,100544.85
2022-12-08T18:54:16.626Z,100544.86
2022-12-08T18:56:45.084Z,100546.57
2022-12-08T18:59:14.572Z,100551.15
2022-12-08T19:01:43.328Z,100550.84
2022-12-08T19:04:27.996Z,100549.06
2022-12-08T19:06:57.884Z,100547.25
2022-12-08T19:09:27.075Z,100528.50
2022-12-08T19:11:56.108Z,100547.56
2022-12-08T19:14:28.127Z,100545.38
2022-12-08T19:16:57.969Z,100542.44
2022-12-08T19:19:27.672Z,100546.86
2022-12-08T19:21:56.737Z,100549.69
2022-12-08T19:24:25.687Z,100536.48
2022-12-08T19:26:54.158Z,100555.72
2022-12-08T19:29:22.632Z,100556.30
2022-12-08T19:31:51.944Z,100559.65
2022-12-08T19:34:23.870Z,100559.40
2022-12-08T19:36:52.247Z,100568.50
2022-12-08T19:39:41.685Z,100573.54
2022-12-08T19:42:36.024Z,100576.70
2022-12-08T19:45:16.429Z,100578.52
2022-12-08T19:47:45.324Z,100577.60
2022-12-08T19:50:34.024Z,100576.85
2022-12-08T19:53:21.563Z,100567.98
2022-12-08T19:55:51.121Z,100566.45
2022-12-08T19:58:22.333Z,100580.89
2022-12-08T20:00:50.634Z,100584.52
2022-12-08T20:03:20.965Z,100587.38
2022-12-08T20:05:59.863Z,100588.17
2022-12-08T20:08:29.061Z,100588.32
2022-12-08T20:10:59.462Z,100596.02
2022-12-08T20:13:44.919Z,100593.20
2022-12-08T20:16:15.386Z,100597.30
2022-12-08T20:18:44.853Z,100598.40
2022-12-08T20:21:14.467Z,100606.90
2022-12-08T20:23:43.304Z,100609.52
2022-12-08T20:26:13.541Z,100594.09
2022-12-08T20:28:42.237Z,100605.55
2022-12-08T20:31:26.054Z,100588.04
2022-12-08T20:33:54.623Z,100598.02
2022-12-08T20:36:23.838Z,100604.64
2022-12-08T20:38:54.320Z,100600.33
2022-12-08T20:41:23.799Z,100598.56
2022-12-08T20:43:52.879Z,100590.69
2022-12-08T20:46:21.874Z,100602.81
2022-12-08T20:48:50.313Z,100605.42
2022-12-08T20:51:19.922Z,100603.23
2022-12-08T20:53:51.513Z,100602.73
2022-12-08T20:56:22.359Z,100607.34
2022-12-08T20:58:52.262Z,100599.77
2022-12-08T21:01:23.453Z,100619.44
2022-12-08T21:03:52.263Z,100605.28
2022-12-08T21:06:23.618Z,100619.15
2022-12-08T21:08:52.576Z,100604.30
2022-12-08T21:11:21.129Z,100622.95
2022-12-08T21:13:49.689Z,100615.41
2022-12-08T21:16:18.062Z,100634.70
2022-12-08T21:18:46.634Z,100641.30
2022-12-08T21:21:15.760Z,100647.80
2022-12-08T21:23:45.032Z,100648.63
2022-12-08T21:26:16.242Z,100649.62
2022-12-08T21:28:45.029Z,100651.48
2022-12-08T21:31:16.697Z,100627.70
2022-12-08T21:33:45.465Z,100656.45
2022-12-08T21:36:16.790Z,100657.81
2022-12-08T21:38:47.009Z,100657.86
2022-12-08T21:41:38.349Z,100659.17
2022-12-08T21:44:09.655Z,100657.21
2022-12-08T21:46:38.229Z,100661.65
2022-12-08T21:49:07.094Z,100660.98
2022-12-08T21:51:37.944Z,100666.84
2022-12-08T21:54:07.017Z,100661.26
2022-12-08T21:56:35.832Z,100663.10
2022-12-08T21:59:04.222Z,100661.66
2022-12-08T22:01:32.508Z,100663.56
2022-12-08T22:04:01.530Z,100660.17
2022-12-08T22:06:30.978Z,100657.73
2022-12-08T22:08:59.751Z,100663.72
2022-12-08T22:11:28.622Z,100664.62
2022-12-08T22:13:57.063Z,100664.30
2022-12-08T22:16:25.533Z,100664.66
2022-12-08T22:18:54.127Z,100663.95
2022-12-08T22:21:22.412Z,100669.08
2022-12-08T22:23:50.846Z,100672.19
2022-12-08T22:26:19.301Z,100674.64
2022-12-08T22:28:47.595Z,100678.02
2022-12-08T22:31:21.172Z,100678.05
2022-12-08T22:33:50.748Z,100679.89
2022-12-08T22:36:22.419Z,100682.03
2022-12-08T22:38:52.380Z,100677.63
2022-12-08T22:41:22.159Z,100680.00
2022-12-08T22:43:50.851Z,100687.70
2022-12-08T22:46:21.587Z,100691.77
2022-12-08T22:48:51.415Z,100690.92
2022-12-08T22:51:20.309Z,100692.63
2022-12-08T22:53:48.937Z,100692.63
2022-12-08T22:56:18.638Z,100693.67
2022-12-08T22:58:46.987Z,100699.69
2022-12-08T23:01:26.251Z,100702.35
2022-12-08T23:03:55.077Z,100705.58
2022-12-08T23:06:24.249Z,100706.22
2022-12-08T23:08:54.055Z,100704.73
2022-12-08T23:11:25.882Z,100704.80
2022-12-08T23:13:56.318Z,100707.02
2022-12-08T23:16:24.919Z,100707.35
2022-12-08T23:18:53.333Z,100706.51
2022-12-08T23:21:22.191Z,100710.49
2022-12-08T23:23:50.494Z,100710.83
2022-12-08T23:26:27.513Z,100712.88
2022-12-08T23:29:42.684Z,100713.95
2022-12-08T23:32:29.340Z,100726.43
2022-12-08T23:34:57.920Z,100719.11
2022-12-08T23:37:26.310Z,100723.63
2022-12-08T23:39:54.868Z,100723.35
2022-12-08T23:42:23.400Z,100718.63
2022-12-08T23:44:51.834Z,100720.66
2022-12-08T23:47:21.038Z,100722.10
2022-12-08T23:49:49.420Z,100722.53
2022-12-08T23:52:17.658Z,100725.55
2022-12-08T23:54:46.109Z,100723.44
2022-12-08T23:57:14.381Z,100728.09
2022-12-08T23:59:42.657Z,100733.16
